createdAt,value
2023-04-06T00:01:21.508Z,13.20
2023-04-06T00:03:48.762Z,14.73
2023-04-06T00:06:17.230Z,14.07
2023-04-06T00:08:45.550Z,12.53
2023-04-06T00:11:14.269Z,13.40
2023-04-06T00:13:41.854Z,12.57
2023-04-06T00:16:09.391Z,13.30
2023-04-06T00:18:36.687Z,12.50
2023-04-06T00:21:04.511Z,13.03
2023-04-06T00:23:31.745Z,11.67
2023-04-06T00:25:59.331Z,11.17
2023-04-06T00:28:27.207Z,13.67
2023-04-06T00:30:56.161Z,12.30
2023-04-06T00:33:24.146Z,11.50
2023-04-06T00:35:51.993Z,11.37
2023-04-06T00:38:19.256Z,10.83
2023-04-06T00:40:46.630Z,10.20
2023-04-06T00:43:14.130Z,10.33
2023-04-06T00:45:42.702Z,10.27
2023-04-06T00:48:10.824Z,10.90
2023-04-06T00:50:38.076Z,11.73
2023-04-06T00:53:05.306Z,11.27
2023-04-06T00:55:32.563Z,10.70
2023-04-06T00:58:02.036Z,10.47
2023-04-06T01:00:33.455Z,10.37
2023-04-06T01:03:02.670Z,10.40
2023-04-06T01:05:41.902Z,9.40
2023-04-06T01:08:17.519Z,9.67
2023-04-06T01:10:45.365Z,9.90
2023-04-06T01:13:31.122Z,10.10
2023-04-06T01:16:01.639Z,9.33
2023-04-06T01:18:38.198Z,10.53
2023-04-06T01:21:16.603Z,9.90
2023-04-06T01:23:58.544Z,10.27
2023-04-06T01:26:34.461Z,9.27
2023-04-06T01:29:05.966Z,10.30
2023-04-06T01:31:33.753Z,9.93
2023-04-06T01:34:01.350Z,10.37
2023-04-06T01:36:28.547Z,9.80
2023-04-06T01:39:04.883Z,10.00
2023-04-06T01:41:36.516Z,10.20
2023-04-06T01:44:04.018Z,10.40
2023-04-06T01:46:33.007Z,9.50
2023-04-06T01:49:01.864Z,8.50
2023-04-06T01:51:37.075Z,9.77
2023-04-06T01:54:07.417Z,9.23
2023-04-06T01:56:44.181Z,9.97
2023-04-06T01:59:23.473Z,9.57
2023-04-06T02:01:51.518Z,10.47
2023-04-06T02:04:19.555Z,9.50
2023-04-06T02:06:49.811Z,9.30
2023-04-06T02:09:21.909Z,10.27
2023-04-06T02:11:49.256Z,8.97
2023-04-06T02:14:16.506Z,9.90
2023-04-06T02:16:50.360Z,8.53
2023-04-06T02:19:17.881Z,9.27
2023-04-06T02:21:45.470Z,9.73
2023-04-06T02:24:12.758Z,9.60
2023-04-06T02:26:40.149Z,9.80
2023-04-06T02:29:08.259Z,8.10
2023-04-06T02:31:36.101Z,9.40
2023-04-06T02:34:04.393Z,8.73
2023-04-06T02:36:32.687Z,8.73
2023-04-06T02:38:59.874Z,8.10
2023-04-06T02:41:27.669Z,8.07
2023-04-06T02:43:55.924Z,9.37
2023-04-06T02:46:34.377Z,8.40
2023-04-06T02:49:01.717Z,8.67
2023-04-06T02:51:31.756Z,8.47
2023-04-06T02:54:08.879Z,8.77
2023-04-06T02:56:36.223Z,9.47
2023-04-06T02:59:04.158Z,8.40
2023-04-06T03:01:33.637Z,9.50
2023-04-06T03:04:04.623Z,9.60
2023-04-06T03:06:32.670Z,9.57
2023-04-06T03:09:09.210Z,9.57
2023-04-06T03:11:37.452Z,10.20
2023-04-06T03:14:04.703Z,10.60
2023-04-06T03:16:31.888Z,10.87
2023-04-06T03:19:00.939Z,10.63
2023-04-06T03:21:28.882Z,9.73
2023-04-06T03:23:56.306Z,10.23
2023-04-06T03:26:24.296Z,9.87
2023-04-06T03:28:53.410Z,10.57
2023-04-06T03:31:24.663Z,12.70
2023-04-06T03:34:00.211Z,10.90
2023-04-06T03:36:31.773Z,11.47
2023-04-06T03:38:59.553Z,12.10
2023-04-06T03:41:27.298Z,12.57
2023-04-06T03:44:01.810Z,11.40
2023-04-06T03:46:29.505Z,12.97
2023-04-06T03:48:59.543Z,12.90
2023-04-06T03:51:27.708Z,13.53
2023-04-06T03:53:54.919Z,13.53
2023-04-06T03:56:22.575Z,14.53
2023-04-06T03:58:52.752Z,14.10
2023-04-06T04:01:21.931Z,13.60
2023-04-06T04:03:51.557Z,12.20
2023-04-06T04:06:19.162Z,12.73
2023-04-06T04:08:46.942Z,12.60
2023-04-06T04:11:14.445Z,13.10
2023-04-06T04:13:41.655Z,12.43
2023-04-06T04:16:10.216Z,12.83
2023-04-06T04:18:37.568Z,13.43
2023-04-06T04:21:04.928Z,12.03
2023-04-06T04:23:32.320Z,12.90
2023-04-06T04:25:59.594Z,13.40
2023-04-06T04:28:26.805Z,12.10
2023-04-06T04:30:56.211Z,11.67
2023-04-06T04:33:24.214Z,12.20
2023-04-06T04:35:53.920Z,12.33
2023-04-06T04:38:23.450Z,12.60
2023-04-06T04:40:53.953Z,12.00
2023-04-06T04:43:22.571Z,14.63
2023-04-06T04:45:50.294Z,12.87
2023-04-06T04:48:40.665Z,12.70
2023-04-06T04:51:08.510Z,12.93
2023-04-06T04:54:03.346Z,13.30
2023-04-06T04:56:33.324Z,12.10
2023-04-06T04:59:20.321Z,13.23
2023-04-06T05:01:55.760Z,12.47
2023-04-06T05:04:29.404Z,12.40
2023-04-06T05:07:04.912Z,12.43
2023-04-06T05:09:33.443Z,11.67
2023-04-06T05:12:01.259Z,11.60
2023-04-06T05:14:29.358Z,12.33
2023-04-06T05:16:57.101Z,11.70
2023-04-06T05:19:26.901Z,12.33
2023-04-06T05:21:54.226Z,12.00
2023-04-06T05:24:21.482Z,11.40
2023-04-06T05:26:50.430Z,12.00
2023-04-06T05:29:23.549Z,11.17
2023-04-06T05:31:51.893Z,10.97
2023-04-06T05:34:19.135Z,9.67
2023-04-06T05:36:47.422Z,10.00
2023-04-06T05:39:24.498Z,10.80
2023-04-06T05:41:54.519Z,11.10
2023-04-06T05:44:32.199Z,10.43
2023-04-06T05:47:12.909Z,9.80
2023-04-06T05:49:43.324Z,11.57
2023-04-06T05:52:16.365Z,11.97
2023-04-06T05:54:47.154Z,12.27
2023-04-06T05:57:15.054Z,11.23
2023-04-06T05:59:42.884Z,11.13
2023-04-06T06:02:12.188Z,10.60
2023-04-06T06:04:43.149Z,10.37
2023-04-06T06:07:11.081Z,10.40
2023-04-06T06:09:44.379Z,9.83
2023-04-06T06:12:20.892Z,10.37
2023-04-06T06:14:49.835Z,11.00
2023-04-06T06:17:17.161Z,11.50
2023-04-06T06:19:46.982Z,9.90
2023-04-06T06:22:14.288Z,11.80
2023-04-06T06:24:46.276Z,10.80
2023-04-06T06:27:15.038Z,10.30
2023-04-06T06:29:42.292Z,10.50
2023-04-06T06:32:10.021Z,10.37
2023-04-06T06:34:38.295Z,9.70
2023-04-06T06:37:07.761Z,9.97
2023-04-06T06:39:37.606Z,9.43
2023-04-06T06:42:04.944Z,9.87
2023-04-06T06:44:49.334Z,9.53
2023-04-06T06:47:16.618Z,10.27
2023-04-06T06:49:45.216Z,9.73
2023-04-06T06:52:12.509Z,10.90
2023-04-06T06:54:40.096Z,11.10
2023-04-06T06:57:07.303Z,9.70
2023-04-06T06:59:34.608Z,9.80
2023-04-06T07:02:01.921Z,9.00
2023-04-06T07:04:29.202Z,9.20
2023-04-06T07:06:56.716Z,9.93
2023-04-06T07:09:23.905Z,8.80
2023-04-06T07:11:51.366Z,9.67
2023-04-06T07:14:18.630Z,8.90
2023-04-06T07:16:48.591Z,9.17
2023-04-06T07:19:16.711Z,7.80
2023-04-06T07:21:43.948Z,7.97
2023-04-06T07:24:36.771Z,8.10
2023-04-06T07:27:04.328Z,8.87
2023-04-06T07:29:31.740Z,7.43
2023-04-06T07:31:59.365Z,7.10
2023-04-06T07:34:28.032Z,7.50
2023-04-06T07:36:55.489Z,7.00
2023-04-06T07:39:23.174Z,7.20
2023-04-06T07:41:50.852Z,6.67
2023-04-06T07:44:18.095Z,5.20
2023-04-06T07:46:46.653Z,4.30
2023-04-06T07:49:14.405Z,4.33
2023-04-06T07:51:43.076Z,4.70
2023-04-06T07:54:10.299Z,4.40
2023-04-06T07:56:37.875Z,3.80
2023-04-06T07:59:05.084Z,3.93
2023-04-06T08:01:32.546Z,4.17
2023-04-06T08:04:01.239Z,3.57
2023-04-06T08:06:28.528Z,3.30
2023-04-06T08:08:55.828Z,3.73
2023-04-06T08:11:23.510Z,4.13
2023-04-06T08:13:51.086Z,4.67
2023-04-06T08:16:19.027Z,3.90
2023-04-06T08:18:46.246Z,4.40
2023-04-06T08:21:13.760Z,4.33
2023-04-06T08:23:41.069Z,4.63
2023-04-06T08:26:10.636Z,4.17
2023-04-06T08:28:37.795Z,4.57
2023-04-06T08:31:06.534Z,4.87
2023-04-06T08:33:39.914Z,3.70
2023-04-06T08:36:11.603Z,3.83
2023-04-06T08:38:39.526Z,4.30
2023-04-06T08:41:09.829Z,4.20
2023-04-06T08:43:44.764Z,3.83
2023-04-06T08:46:12.593Z,4.13
2023-04-06T08:48:41.190Z,4.10
2023-04-06T08:51:09.790Z,3.70
2023-04-06T08:53:37.759Z,3.60
2023-04-06T08:56:06.349Z,3.77
2023-04-06T08:58:40.491Z,3.90
2023-04-06T09:01:10.090Z,4.50
2023-04-06T09:03:43.057Z,4.10
2023-04-06T09:06:11.179Z,4.40
2023-04-06T09:08:41.701Z,2.90
2023-04-06T09:11:09.427Z,3.50
2023-04-06T09:13:48.461Z,3.57
2023-04-06T09:16:16.469Z,3.03
2023-04-06T09:18:43.927Z,2.80
2023-04-06T09:21:12.075Z,3.70
2023-04-06T09:23:40.809Z,2.80
2023-04-06T09:26:09.925Z,3.17
2023-04-06T09:28:51.548Z,3.07
2023-04-06T09:31:34.056Z,3.10
2023-04-06T09:34:02.620Z,3.07
2023-04-06T09:36:33.728Z,3.63
2023-04-06T09:39:03.849Z,3.90
2023-04-06T09:41:36.300Z,2.77
2023-04-06T09:44:08.865Z,3.20
2023-04-06T09:46:55.801Z,3.43
2023-04-06T09:49:31.263Z,3.17
2023-04-06T09:52:01.500Z,3.30
2023-04-06T09:54:32.846Z,3.30
2023-04-06T09:57:20.760Z,3.70
2023-04-06T10:00:12.305Z,3.37
2023-04-06T10:02:58.123Z,3.97
2023-04-06T10:05:31.509Z,2.80
2023-04-06T10:08:03.601Z,3.50
2023-04-06T10:10:31.739Z,3.63
2023-04-06T10:13:00.889Z,3.40
2023-04-06T10:15:30.704Z,3.77
2023-04-06T10:17:59.519Z,3.73
2023-04-06T10:20:30.987Z,3.70
2023-04-06T10:23:07.079Z,4.23
2023-04-06T10:25:34.982Z,3.27
2023-04-06T10:28:06.559Z,3.80
2023-04-06T10:30:35.215Z,3.57
2023-04-06T10:33:03.183Z,3.77
2023-04-06T10:35:49.178Z,3.63
2023-04-06T10:38:21.784Z,3.57
2023-04-06T10:40:49.889Z,4.07
2023-04-06T10:43:21.909Z,4.10
2023-04-06T10:45:56.832Z,3.87
2023-04-06T10:48:24.891Z,4.33
2023-04-06T10:50:55.714Z,4.10
2023-04-06T10:53:27.026Z,3.60
2023-04-06T10:55:56.427Z,4.50
2023-04-06T10:58:28.352Z,3.70
2023-04-06T11:00:57.266Z,5.10
2023-04-06T11:03:24.874Z,6.20
2023-04-06T11:05:52.671Z,5.50
2023-04-06T11:08:23.899Z,5.93
2023-04-06T11:10:51.520Z,5.90
2023-04-06T11:13:19.245Z,5.60
2023-04-06T11:15:46.776Z,6.60
2023-04-06T11:18:14.302Z,5.13
2023-04-06T11:20:42.069Z,6.60
2023-04-06T11:23:09.597Z,6.77
2023-04-06T11:25:37.112Z,6.57
2023-04-06T11:28:05.154Z,7.30
2023-04-06T11:30:32.783Z,6.90
2023-04-06T11:33:03.377Z,8.17
2023-04-06T11:35:33.555Z,7.90
2023-04-06T11:38:04.235Z,8.20
2023-04-06T11:40:34.025Z,7.50
2023-04-06T11:43:01.552Z,7.10
2023-04-06T11:45:29.040Z,7.07
2023-04-06T11:48:01.070Z,6.70
2023-04-06T11:50:35.004Z,7.30
2023-04-06T11:53:03.947Z,7.70
2023-04-06T11:55:38.628Z,6.67
2023-04-06T11:58:06.988Z,7.47
2023-04-06T12:00:35.709Z,7.30
2023-04-06T12:03:03.432Z,7.67
2023-04-06T12:05:31.852Z,7.10
2023-04-06T12:08:01.233Z,6.87
2023-04-06T12:10:31.022Z,7.30
2023-04-06T12:12:59.037Z,6.67
2023-04-06T12:15:26.795Z,7.40
2023-04-06T12:17:54.433Z,6.73
2023-04-06T12:20:26.995Z,5.03
2023-04-06T12:22:55.299Z,7.17
2023-04-06T12:25:22.926Z,6.53
2023-04-06T12:27:50.779Z,6.23
2023-04-06T12:30:18.609Z,6.10
2023-04-06T12:32:47.242Z,7.40
2023-04-06T12:35:17.091Z,5.80
2023-04-06T12:37:45.381Z,6.70
2023-04-06T12:40:13.497Z,6.60
2023-04-06T12:42:42.407Z,6.57
2023-04-06T12:45:10.964Z,6.73
2023-04-06T12:47:38.690Z,6.87
2023-04-06T12:50:08.495Z,6.57
2023-04-06T12:52:37.281Z,6.57
2023-04-06T12:55:06.160Z,6.57
2023-04-06T12:57:34.278Z,6.63
2023-04-06T13:00:01.933Z,6.97
2023-04-06T13:02:29.582Z,7.07
2023-04-06T13:04:57.223Z,6.07
2023-04-06T13:07:25.422Z,6.67
2023-04-06T13:09:54.854Z,6.33
2023-04-06T13:12:22.427Z,5.20
2023-04-06T13:14:53.301Z,6.27
2023-04-06T13:17:21.965Z,6.37
2023-04-06T13:19:49.946Z,5.70
2023-04-06T13:22:17.908Z,6.03
2023-04-06T13:24:45.981Z,5.53
2023-04-06T13:27:13.614Z,6.20
2023-04-06T13:29:41.579Z,6.30
2023-04-06T13:32:11.264Z,5.90
2023-04-06T13:34:38.906Z,5.67
2023-04-06T13:37:06.775Z,5.27
2023-04-06T13:39:34.852Z,5.70
2023-04-06T13:42:03.460Z,6.27
2023-04-06T13:44:31.557Z,5.73
2023-04-06T13:46:59.109Z,5.70
2023-04-06T13:49:27.591Z,5.90
2023-04-06T13:51:56.878Z,6.20
2023-04-06T13:54:24.370Z,5.70
2023-04-06T13:56:53.243Z,6.20
2023-04-06T13:59:20.995Z,5.50
2023-04-06T14:01:49.601Z,6.37
2023-04-06T14:04:17.220Z,5.77
2023-04-06T14:06:47.105Z,6.40
2023-04-06T14:09:14.603Z,5.13
2023-04-06T14:11:42.217Z,5.97
2023-04-06T14:14:10.389Z,6.30
2023-04-06T14:16:37.965Z,5.50
2023-04-06T14:19:06.256Z,5.17
2023-04-06T14:21:34.476Z,5.27
2023-04-06T14:24:02.660Z,5.90
2023-04-06T14:26:30.167Z,5.70
2023-04-06T14:28:57.911Z,5.30
2023-04-06T14:31:25.523Z,5.20
2023-04-06T14:33:53.287Z,5.53
2023-04-06T14:36:22.130Z,5.50
2023-04-06T14:38:49.813Z,6.20
2023-04-06T14:41:21.126Z,5.27
2023-04-06T14:43:48.794Z,5.67
2023-04-06T14:46:16.844Z,4.97
2023-04-06T14:48:44.691Z,5.67
2023-04-06T14:51:12.217Z,5.73
2023-04-06T14:53:40.321Z,5.90
2023-04-06T14:56:08.072Z,5.97
2023-04-06T14:58:35.890Z,5.80
2023-04-06T15:01:03.783Z,6.23
2023-04-06T15:03:32.045Z,5.67
2023-04-06T15:05:59.921Z,5.30
2023-04-06T15:08:27.614Z,5.27
2023-04-06T15:10:59.439Z,5.97
2023-04-06T15:13:27.128Z,5.60
2023-04-06T15:15:55.000Z,5.53
2023-04-06T15:18:22.241Z,5.80
2023-04-06T15:20:49.411Z,5.87
2023-04-06T15:23:17.068Z,5.40
2023-04-06T15:25:44.473Z,5.60
2023-04-06T15:28:12.085Z,5.80
2023-04-06T15:30:39.304Z,5.20
2023-04-06T15:33:08.838Z,5.00
2023-04-06T15:35:43.938Z,5.77
2023-04-06T15:38:11.528Z,5.50
2023-04-06T15:40:47.099Z,5.43
2023-04-06T15:43:14.827Z,6.03
2023-04-06T15:45:42.768Z,5.90
2023-04-06T15:48:10.323Z,5.47
2023-04-06T15:50:37.652Z,6.67
2023-04-06T15:53:05.153Z,5.93
2023-04-06T15:55:32.657Z,5.70
2023-04-06T15:57:59.916Z,5.17
2023-04-06T16:00:28.721Z,5.67
2023-04-06T16:02:57.103Z,5.83
2023-04-06T16:05:25.737Z,5.53
2023-04-06T16:07:54.834Z,6.33
2023-04-06T16:10:22.115Z,5.77
2023-04-06T16:12:49.434Z,5.93
2023-04-06T16:15:17.317Z,5.37
2023-04-06T16:17:44.647Z,6.33
2023-04-06T16:20:15.539Z,5.90
2023-04-06T16:22:43.097Z,5.90
2023-04-06T16:25:11.980Z,5.70
2023-04-06T16:27:39.684Z,5.60
2023-04-06T16:30:07.831Z,4.73
2023-04-06T16:32:35.564Z,4.63
2023-04-06T16:35:04.393Z,5.53
2023-04-06T16:37:31.790Z,4.97
2023-04-06T16:39:59.296Z,5.10
2023-04-06T16:42:27.252Z,5.70
2023-04-06T16:44:54.482Z,5.13
2023-04-06T16:47:21.679Z,4.83
2023-04-06T16:49:48.950Z,4.43
2023-04-06T16:52:17.241Z,5.07
2023-04-06T16:54:44.370Z,5.40
2023-04-06T16:59:40.099Z,4.60
2023-04-06T17:02:07.456Z,4.53
2023-04-06T17:04:37.149Z,4.90
2023-04-06T17:07:07.055Z,5.10
2023-04-06T17:09:37.530Z,4.80
2023-04-06T17:12:05.240Z,5.20
2023-04-06T17:14:32.815Z,4.50
2023-04-06T17:17:00.500Z,4.90
2023-04-06T17:19:27.770Z,4.90
2023-04-06T17:21:55.174Z,4.93
2023-04-06T17:24:22.442Z,5.90
2023-04-06T17:26:49.801Z,4.93
2023-04-06T17:29:17.029Z,4.70
2023-04-06T17:31:46.218Z,5.73
2023-04-06T17:34:13.768Z,5.17
2023-04-06T17:36:40.966Z,5.63
2023-04-06T17:39:08.659Z,5.53
2023-04-06T17:41:36.100Z,5.60
2023-04-06T17:44:03.473Z,5.83
2023-04-06T17:46:30.946Z,4.90
2023-04-06T17:48:59.499Z,5.83
2023-04-06T17:51:27.056Z,6.90
2023-04-06T17:53:54.557Z,5.80
2023-04-06T17:56:23.220Z,5.30
2023-04-06T17:58:54.911Z,5.80
2023-04-06T18:01:22.465Z,6.07
2023-04-06T18:03:49.856Z,6.00
2023-04-06T18:06:18.178Z,5.53
2023-04-06T18:08:45.557Z,6.77
2023-04-06T18:11:18.215Z,6.67
2023-04-06T18:13:46.207Z,6.70
2023-04-06T18:16:14.428Z,6.60
2023-04-06T18:18:41.843Z,6.47
2023-04-06T18:21:09.126Z,6.80
2023-04-06T18:24:40.377Z,6.53
2023-04-06T18:27:08.584Z,6.67
2023-04-06T18:29:38.198Z,6.80
2023-04-06T18:32:06.417Z,7.00
2023-04-06T18:34:34.043Z,6.33
2023-04-06T18:37:01.764Z,5.50
2023-04-06T18:39:29.390Z,5.87
2023-04-06T18:41:56.829Z,6.60
2023-04-06T18:44:24.495Z,6.10
2023-04-06T18:46:56.029Z,6.47
2023-04-06T18:49:24.022Z,7.03
2023-04-06T18:51:51.454Z,6.97
2023-04-06T18:54:18.832Z,7.00
2023-04-06T18:56:48.597Z,7.37
2023-04-06T18:59:17.334Z,7.07
2023-04-06T19:01:47.016Z,7.60
2023-04-06T19:04:14.677Z,6.47
2023-04-06T19:06:42.316Z,8.00
2023-04-06T19:09:09.947Z,7.43
2023-04-06T19:11:37.378Z,6.40
2023-04-06T19:14:05.359Z,8.60
2023-04-06T19:16:32.860Z,6.20
2023-04-06T19:19:00.659Z,6.87
2023-04-06T19:21:28.039Z,8.63
2023-04-06T19:23:55.946Z,7.30
2023-04-06T19:26:27.713Z,7.87
2023-04-06T19:28:55.036Z,8.00
2023-04-06T19:31:23.069Z,8.30
2023-04-06T19:33:50.764Z,7.90
2023-04-06T19:36:18.260Z,7.67
2023-04-06T19:38:46.038Z,7.97
2023-04-06T19:41:13.331Z,8.30
2023-04-06T19:43:40.830Z,8.60
2023-04-06T19:46:09.225Z,7.87
2023-04-06T19:48:36.725Z,8.63
2023-04-06T19:51:04.570Z,7.50
2023-04-06T19:53:31.908Z,8.40
2023-04-06T19:55:59.234Z,8.13
2023-04-06T19:58:26.537Z,7.90
2023-04-06T20:00:54.100Z,8.70
2023-04-06T20:03:21.420Z,8.40
2023-04-06T20:05:48.894Z,8.80
2023-04-06T20:08:16.519Z,8.30
2023-04-06T20:10:43.790Z,9.30
2023-04-06T20:13:11.192Z,8.17
2023-04-06T20:15:39.244Z,8.80
2023-04-06T20:18:07.625Z,7.90
2023-04-06T20:20:35.229Z,8.20
2023-04-06T20:23:02.526Z,8.17
2023-04-06T20:25:31.291Z,8.47
2023-04-06T20:27:58.555Z,8.77
2023-04-06T20:30:26.220Z,8.03
2023-04-06T20:32:53.523Z,7.67
2023-04-06T20:35:21.000Z,7.90
2023-04-06T20:38:14.600Z,8.40
2023-04-06T20:40:46.888Z,8.80
2023-04-06T20:43:14.306Z,8.13
2023-04-06T20:45:42.255Z,8.30
2023-04-06T20:48:11.383Z,8.73
2023-04-06T20:50:38.790Z,7.87
2023-04-06T20:53:06.421Z,8.47
2023-04-06T20:55:34.106Z,7.90
2023-04-06T20:58:01.309Z,8.97
2023-04-06T21:00:29.574Z,9.07
2023-04-06T21:02:57.009Z,8.63
2023-04-06T21:05:24.417Z,7.70
2023-04-06T21:07:51.636Z,8.40
2023-04-06T21:10:19.135Z,8.97
2023-04-06T21:12:46.308Z,7.93
2023-04-06T21:15:13.502Z,8.47
2023-04-06T21:17:41.510Z,7.70
2023-04-06T21:20:10.282Z,8.13
2023-04-06T21:22:39.206Z,8.43
2023-04-06T21:25:07.015Z,8.23
2023-04-06T21:27:34.584Z,8.50
2023-04-06T21:30:02.362Z,8.90
2023-04-06T21:32:29.553Z,9.33
2023-04-06T21:34:57.746Z,9.43
2023-04-06T21:37:25.000Z,7.83
2023-04-06T21:39:52.616Z,8.20
2023-04-06T21:42:19.803Z,8.30
2023-04-06T21:44:46.984Z,8.47
2023-04-06T21:47:14.228Z,7.80
2023-04-06T21:49:42.028Z,7.60
2023-04-06T21:52:09.419Z,7.97
2023-04-06T21:54:36.707Z,7.87
2023-04-06T21:57:04.044Z,7.80
2023-04-06T21:59:31.316Z,8.43
2023-04-06T22:01:58.667Z,7.63
2023-04-06T22:04:26.070Z,7.57
2023-04-06T22:06:53.460Z,7.50
2023-04-06T22:09:21.228Z,7.27
2023-04-06T22:11:48.726Z,7.50
2023-04-06T22:14:16.075Z,7.90
2023-04-06T22:16:44.234Z,7.37
2023-04-06T22:19:11.954Z,8.43
2023-04-06T22:21:39.277Z,8.13
2023-04-06T22:24:07.349Z,8.33
2023-04-06T22:26:34.563Z,7.20
2023-04-06T22:29:01.799Z,8.37
2023-04-06T22:31:28.936Z,7.90
2023-04-06T22:33:56.615Z,8.30
2023-04-06T22:36:24.507Z,8.60
2023-04-06T22:38:51.662Z,8.17
2023-04-06T22:41:19.414Z,8.10
2023-04-06T22:43:47.361Z,7.40
2023-04-06T22:46:15.022Z,8.80
2023-04-06T22:48:43.226Z,8.27
2023-04-06T22:51:10.579Z,8.10
2023-04-06T22:53:37.761Z,7.87
2023-04-06T22:56:05.394Z,9.67
2023-04-06T22:58:32.558Z,9.10
2023-04-06T23:00:59.782Z,8.67
2023-04-06T23:03:27.338Z,9.90
2023-04-06T23:05:54.602Z,10.47
2023-04-06T23:08:21.759Z,10.40
2023-04-06T23:10:50.628Z,9.80
2023-04-06T23:13:17.771Z,11.07
2023-04-06T23:15:44.941Z,10.13
2023-04-06T23:18:12.408Z,10.87
2023-04-06T23:20:40.023Z,11.40
2023-04-06T23:23:07.199Z,10.77
2023-04-06T23:25:34.330Z,11.83
2023-04-06T23:28:02.083Z,10.37
2023-04-06T23:30:29.245Z,10.70
2023-04-06T23:32:56.428Z,10.83
2023-04-06T23:35:23.719Z,10.10
2023-04-06T23:37:50.955Z,11.03
2023-04-06T23:40:18.373Z,11.40
2023-04-06T23:42:45.732Z,10.13
2023-04-06T23:45:13.531Z,10.50
2023-04-06T23:47:41.406Z,10.83
2023-04-06T23:50:10.096Z,11.00
2023-04-06T23:52:37.278Z,11.27
2023-04-06T23:55:05.813Z,10.53
2023-04-06T23:57:32.973Z,9.83
